sensor_id;sensor_type;location;lat;lon;timestamp;temperature;humidity
71291;DHT22;59073;51.994;4.448;2022-09-27T00:01:35;12.33;81.88
71291;DHT22;59073;51.994;4.448;2022-09-27T00:04:01;12.15;81.57
71291;DHT22;59073;51.994;4.448;2022-09-27T00:06:29;11.98;80.99
71291;DHT22;59073;51.994;4.448;2022-09-27T00:08:56;11.77;80.94
71291;DHT22;59073;51.994;4.448;2022-09-27T00:11:37;11.77;81.38
71291;DHT22;59073;51.994;4.448;2022-09-27T00:14:05;11.64;81.05
71291;DHT22;59073;51.994;4.448;2022-09-27T00:16:34;11.54;79.46
71291;DHT22;59073;51.994;4.448;2022-09-27T00:19:03;11.55;78.19
71291;DHT22;59073;51.994;4.448;2022-09-27T00:21:28;11.65;77.70
71291;DHT22;59073;51.994;4.448;2022-09-27T00:23:55;11.65;77.28
71291;DHT22;59073;51.994;4.448;2022-09-27T00:26:21;11.67;77.20
71291;DHT22;59073;51.994;4.448;2022-09-27T00:28:47;11.71;76.90
71291;DHT22;59073;51.994;4.448;2022-09-27T00:31:22;11.75;77.56
71291;DHT22;59073;51.994;4.448;2022-09-27T00:33:50;11.78;76.70
71291;DHT22;59073;51.994;4.448;2022-09-27T00:36:17;11.86;76.05
71291;DHT22;59073;51.994;4.448;2022-09-27T00:38:42;11.88;75.40
71291;DHT22;59073;51.994;4.448;2022-09-27T00:41:16;11.78;76.13
71291;DHT22;59073;51.994;4.448;2022-09-27T00:43:46;11.83;75.57
71291;DHT22;59073;51.994;4.448;2022-09-27T00:46:17;11.91;75.84
71291;DHT22;59073;51.994;4.448;2022-09-27T00:48:44;11.93;75.79
71291;DHT22;59073;51.994;4.448;2022-09-27T00:51:11;11.96;74.55
71291;DHT22;59073;51.994;4.448;2022-09-27T00:53:43;12.10;73.70
71291;DHT22;59073;51.994;4.448;2022-09-27T00:56:26;12.08;74.51
71291;DHT22;59073;51.994;4.448;2022-09-27T00:59:00;12.22;74.22
71291;DHT22;59073;51.994;4.448;2022-09-27T01:01:27;12.30;74.18
71291;DHT22;59073;51.994;4.448;2022-09-27T01:04:06;12.34;72.75
71291;DHT22;59073;51.994;4.448;2022-09-27T01:06:33;12.51;74.60
71291;DHT22;59073;51.994;4.448;2022-09-27T01:08:59;12.51;73.37
71291;DHT22;59073;51.994;4.448;2022-09-27T01:11:40;12.61;72.65
71291;DHT22;59073;51.994;4.448;2022-09-27T01:25:55;12.64;71.36
71291;DHT22;59073;51.994;4.448;2022-09-27T01:28:50;12.64;72.70
71291;DHT22;59073;51.994;4.448;2022-09-27T01:31:48;12.63;69.90
71291;DHT22;59073;51.994;4.448;2022-09-27T01:34:25;12.70;69.83
71291;DHT22;59073;51.994;4.448;2022-09-27T01:39:35;12.71;71.01
71291;DHT22;59073;51.994;4.448;2022-09-27T01:42:34;12.63;69.45
71291;DHT22;59073;51.994;4.448;2022-09-27T01:45:16;12.73;70.73
71291;DHT22;59073;51.994;4.448;2022-09-27T01:47:49;12.77;69.77
71291;DHT22;59073;51.994;4.448;2022-09-27T01:50:31;12.83;71.15
71291;DHT22;59073;51.994;4.448;2022-09-27T01:53:11;12.88;71.40
71291;DHT22;59073;51.994;4.448;2022-09-27T01:55:38;12.84;69.80
71291;DHT22;59073;51.994;4.448;2022-09-27T02:00:47;12.70;71.62
71291;DHT22;59073;51.994;4.448;2022-09-27T02:03:22;12.70;70.94
71291;DHT22;59073;51.994;4.448;2022-09-27T02:05:53;12.61;70.93
71291;DHT22;59073;51.994;4.448;2022-09-27T02:08:40;12.56;71.03
71291;DHT22;59073;51.994;4.448;2022-09-27T02:11:12;12.61;70.62
71291;DHT22;59073;51.994;4.448;2022-09-27T02:25:04;11.34;80.22
71291;DHT22;59073;51.994;4.448;2022-09-27T02:27:47;11.32;81.81
71291;DHT22;59073;51.994;4.448;2022-09-27T02:30:16;11.31;81.91
71291;DHT22;59073;51.994;4.448;2022-09-27T02:32:42;11.32;82.18
71291;DHT22;59073;51.994;4.448;2022-09-27T02:35:17;11.31;81.80
71291;DHT22;59073;51.994;4.448;2022-09-27T02:37:46;11.35;81.38
71291;DHT22;59073;51.994;4.448;2022-09-27T02:40:12;11.38;80.82
71291;DHT22;59073;51.994;4.448;2022-09-27T02:42:41;11.40;81.06
71291;DHT22;59073;51.994;4.448;2022-09-27T02:45:09;11.54;79.91
71291;DHT22;59073;51.994;4.448;2022-09-27T02:47:56;11.64;79.93
71291;DHT22;59073;51.994;4.448;2022-09-27T02:53:37;11.83;79.26
71291;DHT22;59073;51.994;4.448;2022-09-27T02:59:02;12.08;79.91
71291;DHT22;59073;51.994;4.448;2022-09-27T03:01:50;12.15;79.82
71291;DHT22;59073;51.994;4.448;2022-09-27T03:04:46;12.16;79.83
71291;DHT22;59073;51.994;4.448;2022-09-27T03:07:13;12.19;79.08
71291;DHT22;59073;51.994;4.448;2022-09-27T03:09:43;12.16;79.62
71291;DHT22;59073;51.994;4.448;2022-09-27T03:12:10;12.10;79.76
71291;DHT22;59073;51.994;4.448;2022-09-27T03:14:35;11.99;80.03
71291;DHT22;59073;51.994;4.448;2022-09-27T03:17:01;11.82;80.43
71291;DHT22;59073;51.994;4.448;2022-09-27T03:19:26;11.62;80.62
71291;DHT22;59073;51.994;4.448;2022-09-27T03:21:52;11.44;80.88
71291;DHT22;59073;51.994;4.448;2022-09-27T03:24:17;11.41;81.41
71291;DHT22;59073;51.994;4.448;2022-09-27T03:26:43;11.58;80.40
71291;DHT22;59073;51.994;4.448;2022-09-27T03:29:08;11.67;80.52
71291;DHT22;59073;51.994;4.448;2022-09-27T03:31:34;11.44;80.11
71291;DHT22;59073;51.994;4.448;2022-09-27T03:33:59;11.23;81.40
71291;DHT22;59073;51.994;4.448;2022-09-27T03:36:25;11.35;81.33
71291;DHT22;59073;51.994;4.448;2022-09-27T03:38:50;11.42;81.01
71291;DHT22;59073;51.994;4.448;2022-09-27T03:41:15;11.44;80.59
71291;DHT22;59073;51.994;4.448;2022-09-27T03:43:41;11.13;79.87
71291;DHT22;59073;51.994;4.448;2022-09-27T03:46:06;10.77;81.16
71291;DHT22;59073;51.994;4.448;2022-09-27T03:48:32;10.69;81.36
71291;DHT22;59073;51.994;4.448;2022-09-27T03:50:57;10.84;82.27
71291;DHT22;59073;51.994;4.448;2022-09-27T03:53:22;11.04;82.43
71291;DHT22;59073;51.994;4.448;2022-09-27T03:55:48;11.13;82.15
71291;DHT22;59073;51.994;4.448;2022-09-27T03:58:14;10.95;82.75
71291;DHT22;59073;51.994;4.448;2022-09-27T04:00:39;10.48;82.12
71291;DHT22;59073;51.994;4.448;2022-09-27T04:03:06;10.52;85.06
71291;DHT22;59073;51.994;4.448;2022-09-27T04:05:32;10.75;84.73
71291;DHT22;59073;51.994;4.448;2022-09-27T04:07:57;11.01;84.59
71291;DHT22;59073;51.994;4.448;2022-09-27T04:10:24;11.21;84.09
71291;DHT22;59073;51.994;4.448;2022-09-27T04:12:49;11.35;83.85
71291;DHT22;59073;51.994;4.448;2022-09-27T04:15:15;11.47;83.93
71291;DHT22;59073;51.994;4.448;2022-09-27T04:17:41;11.54;83.80
71291;DHT22;59073;51.994;4.448;2022-09-27T04:20:07;11.58;83.00
71291;DHT22;59073;51.994;4.448;2022-09-27T04:22:33;11.62;83.24
71291;DHT22;59073;51.994;4.448;2022-09-27T04:24:58;11.65;83.10
71291;DHT22;59073;51.994;4.448;2022-09-27T04:27:24;11.67;82.59
71291;DHT22;59073;51.994;4.448;2022-09-27T04:29:49;11.72;82.29
71291;DHT22;59073;51.994;4.448;2022-09-27T04:32:14;11.71;81.94
71291;DHT22;59073;51.994;4.448;2022-09-27T04:34:40;11.67;81.79
71291;DHT22;59073;51.994;4.448;2022-09-27T04:37:37;11.65;82.10
71291;DHT22;59073;51.994;4.448;2022-09-27T04:40:04;11.61;82.44
71291;DHT22;59073;51.994;4.448;2022-09-27T04:42:29;11.61;82.48
71291;DHT22;59073;51.994;4.448;2022-09-27T04:44:55;11.61;82.70
71291;DHT22;59073;51.994;4.448;2022-09-27T04:47:20;11.58;82.64
71291;DHT22;59073;51.994;4.448;2022-09-27T04:49:46;11.35;83.16
71291;DHT22;59073;51.994;4.448;2022-09-27T04:52:12;11.07;83.99
71291;DHT22;59073;51.994;4.448;2022-09-27T04:54:39;11.09;83.94
71291;DHT22;59073;51.994;4.448;2022-09-27T04:57:05;11.19;83.54
71291;DHT22;59073;51.994;4.448;2022-09-27T04:59:30;11.07;83.48
71291;DHT22;59073;51.994;4.448;2022-09-27T05:01:56;11.10;83.60
71291;DHT22;59073;51.994;4.448;2022-09-27T05:04:24;11.17;83.14
71291;DHT22;59073;51.994;4.448;2022-09-27T05:06:49;11.17;82.34
71291;DHT22;59073;51.994;4.448;2022-09-27T05:09:15;11.21;81.70
71291;DHT22;59073;51.994;4.448;2022-09-27T05:11:40;11.34;81.77
71291;DHT22;59073;51.994;4.448;2022-09-27T05:14:06;11.52;81.68
71291;DHT22;59073;51.994;4.448;2022-09-27T05:16:32;11.67;81.87
71291;DHT22;59073;51.994;4.448;2022-09-27T05:18:57;11.69;81.47
71291;DHT22;59073;51.994;4.448;2022-09-27T05:21:23;11.69;81.90
71291;DHT22;59073;51.994;4.448;2022-09-27T05:23:48;11.79;81.61
71291;DHT22;59073;51.994;4.448;2022-09-27T05:26:13;11.77;80.45
71291;DHT22;59073;51.994;4.448;2022-09-27T05:28:39;11.79;80.77
71291;DHT22;59073;51.994;4.448;2022-09-27T05:31:08;11.81;80.45
71291;DHT22;59073;51.994;4.448;2022-09-27T05:33:33;11.74;80.46
71291;DHT22;59073;51.994;4.448;2022-09-27T05:35:59;11.68;80.98
71291;DHT22;59073;51.994;4.448;2022-09-27T05:38:26;11.38;80.63
71291;DHT22;59073;51.994;4.448;2022-09-27T05:40:51;11.47;80.97
71291;DHT22;59073;51.994;4.448;2022-09-27T05:43:17;11.34;81.54
71291;DHT22;59073;51.994;4.448;2022-09-27T05:45:43;11.26;80.94
71291;DHT22;59073;51.994;4.448;2022-09-27T05:48:09;11.28;81.83
71291;DHT22;59073;51.994;4.448;2022-09-27T05:50:37;11.38;81.68
71291;DHT22;59073;51.994;4.448;2022-09-27T05:53:03;11.54;81.60
71291;DHT22;59073;51.994;4.448;2022-09-27T05:55:28;11.61;81.70
71291;DHT22;59073;51.994;4.448;2022-09-27T05:58:02;11.74;81.34
71291;DHT22;59073;51.994;4.448;2022-09-27T06:00:29;11.83;81.22
71291;DHT22;59073;51.994;4.448;2022-09-27T06:02:57;11.85;81.32
71291;DHT22;59073;51.994;4.448;2022-09-27T06:05:24;11.86;80.92
71291;DHT22;59073;51.994;4.448;2022-09-27T06:07:50;11.79;80.83
71291;DHT22;59073;51.994;4.448;2022-09-27T06:10:18;11.78;81.01
71291;DHT22;59073;51.994;4.448;2022-09-27T06:12:44;11.78;81.08
71291;DHT22;59073;51.994;4.448;2022-09-27T06:15:09;11.71;81.47
71291;DHT22;59073;51.994;4.448;2022-09-27T06:17:35;11.69;81.85
71291;DHT22;59073;51.994;4.448;2022-09-27T06:20:01;11.68;81.93
71291;DHT22;59073;51.994;4.448;2022-09-27T06:22:27;11.75;81.82
71291;DHT22;59073;51.994;4.448;2022-09-27T06:24:52;11.75;81.90
71291;DHT22;59073;51.994;4.448;2022-09-27T06:27:18;11.86;81.96
71291;DHT22;59073;51.994;4.448;2022-09-27T06:29:43;11.93;81.92
71291;DHT22;59073;51.994;4.448;2022-09-27T06:32:09;12.00;81.92
71291;DHT22;59073;51.994;4.448;2022-09-27T06:34:35;12.06;81.48
71291;DHT22;59073;51.994;4.448;2022-09-27T06:37:01;12.16;81.47
71291;DHT22;59073;51.994;4.448;2022-09-27T06:39:26;12.19;81.21
71291;DHT22;59073;51.994;4.448;2022-09-27T06:41:53;12.19;81.61
71291;DHT22;59073;51.994;4.448;2022-09-27T06:44:21;12.22;81.47
71291;DHT22;59073;51.994;4.448;2022-09-27T06:46:49;12.30;81.59
71291;DHT22;59073;51.994;4.448;2022-09-27T06:49:14;12.33;81.53
71291;DHT22;59073;51.994;4.448;2022-09-27T06:51:40;12.30;80.89
71291;DHT22;59073;51.994;4.448;2022-09-27T06:54:06;12.28;81.44
71291;DHT22;59073;51.994;4.448;2022-09-27T06:56:31;12.39;82.02
71291;DHT22;59073;51.994;4.448;2022-09-27T06:58:57;12.54;81.77
71291;DHT22;59073;51.994;4.448;2022-09-27T07:01:41;12.23;80.88
71291;DHT22;59073;51.994;4.448;2022-09-27T07:04:09;12.02;81.99
71291;DHT22;59073;51.994;4.448;2022-09-27T07:06:35;11.88;81.90
71291;DHT22;59073;51.994;4.448;2022-09-27T07:09:02;11.58;80.90
71291;DHT22;59073;51.994;4.448;2022-09-27T07:11:28;11.52;80.32
71291;DHT22;59073;51.994;4.448;2022-09-27T07:13:54;11.52;80.51
71291;DHT22;59073;51.994;4.448;2022-09-27T07:16:20;11.62;80.85
71291;DHT22;59073;51.994;4.448;2022-09-27T07:18:47;11.67;81.87
71291;DHT22;59073;51.994;4.448;2022-09-27T07:21:12;11.35;81.33
71291;DHT22;59073;51.994;4.448;2022-09-27T07:23:40;11.28;83.84
71291;DHT22;59073;51.994;4.448;2022-09-27T07:26:06;11.01;81.38
71291;DHT22;59073;51.994;4.448;2022-09-27T07:28:35;10.88;81.69
71291;DHT22;59073;51.994;4.448;2022-09-27T07:31:02;10.83;81.26
71291;DHT22;59073;51.994;4.448;2022-09-27T07:33:29;10.89;81.04
71291;DHT22;59073;51.994;4.448;2022-09-27T07:35:54;10.97;80.24
71291;DHT22;59073;51.994;4.448;2022-09-27T07:38:19;11.10;80.49
71291;DHT22;59073;51.994;4.448;2022-09-27T07:40:45;11.20;79.07
71291;DHT22;59073;51.994;4.448;2022-09-27T07:43:10;11.42;79.42
71291;DHT22;59073;51.994;4.448;2022-09-27T07:45:37;11.54;79.29
71291;DHT22;59073;51.994;4.448;2022-09-27T07:48:06;11.47;79.29
71291;DHT22;59073;51.994;4.448;2022-09-27T07:50:32;11.47;79.62
71291;DHT22;59073;51.994;4.448;2022-09-27T07:52:58;11.41;78.79
71291;DHT22;59073;51.994;4.448;2022-09-27T07:55:23;11.40;78.89
71291;DHT22;59073;51.994;4.448;2022-09-27T07:57:49;11.50;80.58
71291;DHT22;59073;51.994;4.448;2022-09-27T08:00:17;11.60;79.55
71291;DHT22;59073;51.994;4.448;2022-09-27T08:02:44;11.74;78.48
71291;DHT22;59073;51.994;4.448;2022-09-27T08:05:11;11.72;77.89
71291;DHT22;59073;51.994;4.448;2022-09-27T08:07:38;11.89;77.74
71291;DHT22;59073;51.994;4.448;2022-09-27T08:10:08;11.98;77.91
71291;DHT22;59073;51.994;4.448;2022-09-27T08:12:34;12.19;78.55
71291;DHT22;59073;51.994;4.448;2022-09-27T08:14:59;12.32;78.41
71291;DHT22;59073;51.994;4.448;2022-09-27T08:17:30;12.57;79.61
71291;DHT22;59073;51.994;4.448;2022-09-27T08:19:56;12.76;79.61
71291;DHT22;59073;51.994;4.448;2022-09-27T08:22:22;12.83;78.11
71291;DHT22;59073;51.994;4.448;2022-09-27T08:24:48;12.81;77.59
71291;DHT22;59073;51.994;4.448;2022-09-27T08:27:14;12.68;76.43
71291;DHT22;59073;51.994;4.448;2022-09-27T08:29:39;12.81;77.92
71291;DHT22;59073;51.994;4.448;2022-09-27T08:32:09;12.87;77.83
71291;DHT22;59073;51.994;4.448;2022-09-27T08:34:40;12.78;76.78
71291;DHT22;59073;51.994;4.448;2022-09-27T08:37:06;12.90;78.36
71291;DHT22;59073;51.994;4.448;2022-09-27T08:39:31;13.04;78.66
71291;DHT22;59073;51.994;4.448;2022-09-27T08:42:13;13.15;78.88
71291;DHT22;59073;51.994;4.448;2022-09-27T08:45:00;13.19;79.34
71291;DHT22;59073;51.994;4.448;2022-09-27T08:47:59;13.28;79.64
71291;DHT22;59073;51.994;4.448;2022-09-27T08:50:31;13.26;79.16
71291;DHT22;59073;51.994;4.448;2022-09-27T08:53:21;13.18;79.64
71291;DHT22;59073;51.994;4.448;2022-09-27T08:55:50;12.91;78.88
71291;DHT22;59073;51.994;4.448;2022-09-27T08:58:29;13.04;79.50
71291;DHT22;59073;51.994;4.448;2022-09-27T09:00:59;12.92;79.96
71291;DHT22;59073;51.994;4.448;2022-09-27T09:03:30;13.02;79.80
71291;DHT22;59073;51.994;4.448;2022-09-27T09:06:07;12.87;78.85
71291;DHT22;59073;51.994;4.448;2022-09-27T09:14:36;12.32;80.49
71291;DHT22;59073;51.994;4.448;2022-09-27T09:19:57;12.63;79.14
71291;DHT22;59073;51.994;4.448;2022-09-27T09:28:18;13.34;77.56
71291;DHT22;59073;51.994;4.448;2022-09-27T09:36:59;13.86;76.52
71291;DHT22;59073;51.994;4.448;2022-09-27T09:44:46;13.48;77.06
71291;DHT22;59073;51.994;4.448;2022-09-27T09:49:59;12.50;78.62
71291;DHT22;59073;51.994;4.448;2022-09-27T09:52:41;12.12;79.18
71291;DHT22;59073;51.994;4.448;2022-09-27T09:55:18;12.08;80.69
71291;DHT22;59073;51.994;4.448;2022-09-27T09:58:01;12.13;80.94
71291;DHT22;59073;51.994;4.448;2022-09-27T10:00:29;12.09;80.89
71291;DHT22;59073;51.994;4.448;2022-09-27T10:02:58;12.15;81.21
71291;DHT22;59073;51.994;4.448;2022-09-27T10:05:26;12.19;81.01
71291;DHT22;59073;51.994;4.448;2022-09-27T10:07:56;12.16;80.83
71291;DHT22;59073;51.994;4.448;2022-09-27T10:10:23;12.16;81.12
71291;DHT22;59073;51.994;4.448;2022-09-27T10:12:49;12.15;81.36
71291;DHT22;59073;51.994;4.448;2022-09-27T10:15:21;12.18;81.64
71291;DHT22;59073;51.994;4.448;2022-09-27T10:17:50;12.18;81.82
71291;DHT22;59073;51.994;4.448;2022-09-27T10:20:41;12.12;81.42
71291;DHT22;59073;51.994;4.448;2022-09-27T10:23:16;12.08;81.53
71291;DHT22;59073;51.994;4.448;2022-09-27T10:25:52;11.85;81.61
71291;DHT22;59073;51.994;4.448;2022-09-27T10:28:36;11.82;82.26
71291;DHT22;59073;51.994;4.448;2022-09-27T10:31:08;11.67;81.30
71291;DHT22;59073;51.994;4.448;2022-09-27T10:33:51;11.61;81.75
71291;DHT22;59073;51.994;4.448;2022-09-27T10:36:33;11.57;81.80
71291;DHT22;59073;51.994;4.448;2022-09-27T10:39:02;11.61;82.08
71291;DHT22;59073;51.994;4.448;2022-09-27T10:41:40;11.09;82.56
71291;DHT22;59073;51.994;4.448;2022-09-27T10:46:42;11.30;82.93
71291;DHT22;59073;51.994;4.448;2022-09-27T10:51:56;11.47;83.20
71291;DHT22;59073;51.994;4.448;2022-09-27T10:54:34;11.81;83.31
71291;DHT22;59073;51.994;4.448;2022-09-27T10:57:21;11.79;82.21
71291;DHT22;59073;51.994;4.448;2022-09-27T10:59:58;11.79;82.29
71291;DHT22;59073;51.994;4.448;2022-09-27T11:02:31;11.68;81.57
71291;DHT22;59073;51.994;4.448;2022-09-27T11:05:29;11.65;81.69
71291;DHT22;59073;51.994;4.448;2022-09-27T11:07:58;11.52;82.51
71291;DHT22;59073;51.994;4.448;2022-09-27T11:15:41;11.89;81.83
71291;DHT22;59073;51.994;4.448;2022-09-27T11:24:02;12.33;80.79
71291;DHT22;59073;51.994;4.448;2022-09-27T11:29:33;12.32;80.09
71291;DHT22;59073;51.994;4.448;2022-09-27T11:37:51;12.73;80.45
71291;DHT22;59073;51.994;4.448;2022-09-27T11:41:06;12.65;79.61
71291;DHT22;59073;51.994;4.448;2022-09-27T11:46:33;12.85;79.82
71291;DHT22;59073;51.994;4.448;2022-09-27T11:55:15;13.53;78.55
71291;DHT22;59073;51.994;4.448;2022-09-27T11:58:03;13.83;77.60
71291;DHT22;59073;51.994;4.448;2022-09-27T12:00:51;13.96;77.64
71291;DHT22;59073;51.994;4.448;2022-09-27T12:03:51;14.34;75.74
71291;DHT22;59073;51.994;4.448;2022-09-27T12:06:28;14.45;72.24
71291;DHT22;59073;51.994;4.448;2022-09-27T12:09:08;14.46;70.84
71291;DHT22;59073;51.994;4.448;2022-09-27T12:14:36;14.35;71.10
71291;DHT22;59073;51.994;4.448;2022-09-27T12:20:34;15.13;69.17
71291;DHT22;59073;51.994;4.448;2022-09-27T12:23:04;15.50;68.48
71291;DHT22;59073;51.994;4.448;2022-09-27T12:25:39;15.74;64.41
71291;DHT22;59073;51.994;4.448;2022-09-27T12:36:31;15.81;61.70
71291;DHT22;59073;51.994;4.448;2022-09-27T12:42:18;15.39;63.47
71291;DHT22;59073;51.994;4.448;2022-09-27T12:44:49;15.03;66.02
71291;DHT22;59073;51.994;4.448;2022-09-27T12:47:40;14.52;66.44
71291;DHT22;59073;51.994;4.448;2022-09-27T12:50:27;14.22;68.05
71291;DHT22;59073;51.994;4.448;2022-09-27T12:53:01;14.38;66.57
71291;DHT22;59073;51.994;4.448;2022-09-27T12:55:48;14.28;66.09
71291;DHT22;59073;51.994;4.448;2022-09-27T13:04:17;14.25;70.03
71291;DHT22;59073;51.994;4.448;2022-09-27T13:07:16;14.07;68.03
71291;DHT22;59073;51.994;4.448;2022-09-27T13:10:14;14.09;65.22
71291;DHT22;59073;51.994;4.448;2022-09-27T13:12:52;13.89;66.10
71291;DHT22;59073;51.994;4.448;2022-09-27T13:15:29;14.17;68.96
71291;DHT22;59073;51.994;4.448;2022-09-27T13:17:57;14.21;67.90
71291;DHT22;59073;51.994;4.448;2022-09-27T13:23:00;14.06;65.15
71291;DHT22;59073;51.994;4.448;2022-09-27T13:25:54;14.04;66.56
71291;DHT22;59073;51.994;4.448;2022-09-27T13:31:10;13.80;66.37
71291;DHT22;59073;51.994;4.448;2022-09-27T13:36:29;13.73;65.42
71291;DHT22;59073;51.994;4.448;2022-09-27T13:44:47;13.94;69.00
71291;DHT22;59073;51.994;4.448;2022-09-27T13:47:28;14.01;66.35
71291;DHT22;59073;51.994;4.448;2022-09-27T13:55:52;14.52;65.29
71291;DHT22;59073;51.994;4.448;2022-09-27T14:00:48;14.75;65.44
71291;DHT22;59073;51.994;4.448;2022-09-27T14:03:28;14.81;65.71
71291;DHT22;59073;51.994;4.448;2022-09-27T14:05:59;14.83;64.48
71291;DHT22;59073;51.994;4.448;2022-09-27T14:08:28;14.46;63.24
71291;DHT22;59073;51.994;4.448;2022-09-27T14:10:55;14.17;62.73
71291;DHT22;59073;51.994;4.448;2022-09-27T14:13:25;13.99;63.27
71291;DHT22;59073;51.994;4.448;2022-09-27T14:16:02;13.97;66.26
71291;DHT22;59073;51.994;4.448;2022-09-27T14:18:29;14.07;67.17
71291;DHT22;59073;51.994;4.448;2022-09-27T14:21:15;14.09;69.04
71291;DHT22;59073;51.994;4.448;2022-09-27T14:23:41;13.99;69.52
71291;DHT22;59073;51.994;4.448;2022-09-27T14:26:27;13.79;67.17
71291;DHT22;59073;51.994;4.448;2022-09-27T14:28:53;13.59;67.54
71291;DHT22;59073;51.994;4.448;2022-09-27T14:31:23;13.11;68.98
71291;DHT22;59073;51.994;4.448;2022-09-27T14:34:11;12.90;71.51
71291;DHT22;59073;51.994;4.448;2022-09-27T14:36:39;12.87;76.46
71291;DHT22;59073;51.994;4.448;2022-09-27T14:39:31;12.88;76.00
71291;DHT22;59073;51.994;4.448;2022-09-27T14:42:01;12.92;76.32
71291;DHT22;59073;51.994;4.448;2022-09-27T14:44:27;13.05;77.01
71291;DHT22;59073;51.994;4.448;2022-09-27T14:47:19;13.28;77.57
71291;DHT22;59073;51.994;4.448;2022-09-27T14:52:17;13.50;77.86
71291;DHT22;59073;51.994;4.448;2022-09-27T14:54:55;13.42;77.15
71291;DHT22;59073;51.994;4.448;2022-09-27T14:57:25;13.32;76.77
71291;DHT22;59073;51.994;4.448;2022-09-27T14:59:52;13.29;77.54
71291;DHT22;59073;51.994;4.448;2022-09-27T15:02:20;13.45;76.94
71291;DHT22;59073;51.994;4.448;2022-09-27T15:04:49;13.48;77.51
71291;DHT22;59073;51.994;4.448;2022-09-27T15:07:17;13.46;77.41
71291;DHT22;59073;51.994;4.448;2022-09-27T15:09:44;13.58;77.32
71291;DHT22;59073;51.994;4.448;2022-09-27T15:12:16;13.66;78.35
71291;DHT22;59073;51.994;4.448;2022-09-27T15:14:47;13.79;77.79
71291;DHT22;59073;51.994;4.448;2022-09-27T15:17:17;13.83;77.55
71291;DHT22;59073;51.994;4.448;2022-09-27T15:22:50;14.07;76.65
71291;DHT22;59073;51.994;4.448;2022-09-27T15:25:21;14.21;75.75
71291;DHT22;59073;51.994;4.448;2022-09-27T15:27:54;14.28;75.18
71291;DHT22;59073;51.994;4.448;2022-09-27T15:30:32;14.22;74.64
71291;DHT22;59073;51.994;4.448;2022-09-27T15:32:59;14.01;74.22
71291;DHT22;59073;51.994;4.448;2022-09-27T15:35:28;13.99;74.35
71291;DHT22;59073;51.994;4.448;2022-09-27T15:38:11;13.90;74.73
71291;DHT22;59073;51.994;4.448;2022-09-27T15:43:34;13.66;75.65
71291;DHT22;59073;51.994;4.448;2022-09-27T15:46:27;13.70;76.24
71291;DHT22;59073;51.994;4.448;2022-09-27T15:51:43;13.59;76.10
71291;DHT22;59073;51.994;4.448;2022-09-27T15:54:10;13.55;76.32
71291;DHT22;59073;51.994;4.448;2022-09-27T15:56:38;13.55;77.24
71291;DHT22;59073;51.994;4.448;2022-09-27T15:59:05;13.56;76.83
71291;DHT22;59073;51.994;4.448;2022-09-27T16:01:32;13.48;77.29
71291;DHT22;59073;51.994;4.448;2022-09-27T16:03:58;13.43;77.52
71291;DHT22;59073;51.994;4.448;2022-09-27T16:06:27;13.32;76.91
71291;DHT22;59073;51.994;4.448;2022-09-27T16:08:52;13.26;77.15
71291;DHT22;59073;51.994;4.448;2022-09-27T16:11:18;13.32;76.99
71291;DHT22;59073;51.994;4.448;2022-09-27T16:13:43;13.38;77.22
71291;DHT22;59073;51.994;4.448;2022-09-27T16:16:18;13.42;77.43
71291;DHT22;59073;51.994;4.448;2022-09-27T16:18:44;13.45;77.64
71291;DHT22;59073;51.994;4.448;2022-09-27T16:21:11;13.41;77.28
71291;DHT22;59073;51.994;4.448;2022-09-27T16:23:36;13.41;77.43
71291;DHT22;59073;51.994;4.448;2022-09-27T16:26:02;13.36;77.57
71291;DHT22;59073;51.994;4.448;2022-09-27T16:28:30;13.26;78.22
71291;DHT22;59073;51.994;4.448;2022-09-27T16:31:01;13.10;78.53
71291;DHT22;59073;51.994;4.448;2022-09-27T16:33:27;13.04;78.88
71291;DHT22;59073;51.994;4.448;2022-09-27T16:35:53;13.01;79.00
71291;DHT22;59073;51.994;4.448;2022-09-27T16:38:18;12.98;79.52
71291;DHT22;59073;51.994;4.448;2022-09-27T16:40:44;13.08;79.17
71291;DHT22;59073;51.994;4.448;2022-09-27T16:43:09;13.21;78.68
71291;DHT22;59073;51.994;4.448;2022-09-27T16:45:36;13.25;78.65
71291;DHT22;59073;51.994;4.448;2022-09-27T16:48:01;13.15;79.13
71291;DHT22;59073;51.994;4.448;2022-09-27T16:50:27;13.11;79.07
71291;DHT22;59073;51.994;4.448;2022-09-27T16:53:11;13.15;78.37
71291;DHT22;59073;51.994;4.448;2022-09-27T16:55:38;13.23;78.15
71291;DHT22;59073;51.994;4.448;2022-09-27T16:58:03;13.35;77.06
71291;DHT22;59073;51.994;4.448;2022-09-27T17:00:30;12.84;78.60
71291;DHT22;59073;51.994;4.448;2022-09-27T17:02:58;12.67;79.53
71291;DHT22;59073;51.994;4.448;2022-09-27T17:05:23;12.65;80.06
71291;DHT22;59073;51.994;4.448;2022-09-27T17:07:50;12.76;79.76
71291;DHT22;59073;51.994;4.448;2022-09-27T17:10:17;12.78;79.47
71291;DHT22;59073;51.994;4.448;2022-09-27T17:12:43;12.76;78.69
71291;DHT22;59073;51.994;4.448;2022-09-27T17:15:11;12.46;81.23
71291;DHT22;59073;51.994;4.448;2022-09-27T17:17:36;12.20;82.04
71291;DHT22;59073;51.994;4.448;2022-09-27T17:20:02;12.16;82.45
71291;DHT22;59073;51.994;4.448;2022-09-27T17:22:27;11.88;82.63
71291;DHT22;59073;51.994;4.448;2022-09-27T17:24:53;11.69;83.84
71291;DHT22;59073;51.994;4.448;2022-09-27T17:27:18;11.83;83.17
71291;DHT22;59073;51.994;4.448;2022-09-27T17:29:44;11.95;83.16
71291;DHT22;59073;51.994;4.448;2022-09-27T17:32:15;12.03;82.67
71291;DHT22;59073;51.994;4.448;2022-09-27T17:34:41;12.05;82.56
71291;DHT22;59073;51.994;4.448;2022-09-27T17:37:09;12.15;82.49
71291;DHT22;59073;51.994;4.448;2022-09-27T17:39:37;12.22;81.80
71291;DHT22;59073;51.994;4.448;2022-09-27T17:42:03;12.22;81.61
71291;DHT22;59073;51.994;4.448;2022-09-27T17:44:28;12.29;81.54
71291;DHT22;59073;51.994;4.448;2022-09-27T17:46:55;12.32;81.71
71291;DHT22;59073;51.994;4.448;2022-09-27T17:49:39;12.26;82.08
71291;DHT22;59073;51.994;4.448;2022-09-27T17:52:23;12.19;82.54
71291;DHT22;59073;51.994;4.448;2022-09-27T17:54:50;12.19;82.75
71291;DHT22;59073;51.994;4.448;2022-09-27T17:57:18;12.09;82.50
71291;DHT22;59073;51.994;4.448;2022-09-27T17:59:44;12.06;83.16
71291;DHT22;59073;51.994;4.448;2022-09-27T18:02:09;12.08;82.51
71291;DHT22;59073;51.994;4.448;2022-09-27T18:04:34;12.03;82.55
71291;DHT22;59073;51.994;4.448;2022-09-27T18:07:00;11.98;82.41
71291;DHT22;59073;51.994;4.448;2022-09-27T18:09:25;11.93;82.18
71291;DHT22;59073;51.994;4.448;2022-09-27T18:11:51;11.93;81.29
71291;DHT22;59073;51.994;4.448;2022-09-27T18:14:16;11.79;82.07
71291;DHT22;59073;51.994;4.448;2022-09-27T18:16:42;11.60;82.29
71291;DHT22;59073;51.994;4.448;2022-09-27T18:19:14;11.37;82.48
71291;DHT22;59073;51.994;4.448;2022-09-27T18:21:40;11.42;83.33
71291;DHT22;59073;51.994;4.448;2022-09-27T18:24:05;11.44;83.18
71291;DHT22;59073;51.994;4.448;2022-09-27T18:26:34;11.50;83.38